Time;durP1;ratioP1;P1;durP2;ratioP2;P2;SDS_P1;SDS_P2;PMS_P1;PMS_P2;Temp;Humidity;BMP_temperature;BMP_pressure;BME280_temperature;BME280_humidity;BME280_pressure;Samples;Min_cycle;Max_cycle;Signal;HPM_P1;HPM_P2
2023/10/26 00:01:26;;;;;;;7.90;4.70;;;10.30;99.90;;;;;;4228748;28;20043;-59
2023/10/26 00:03:28;;;;;;;6.30;4.23;;;10.30;99.90;;;;;;4229772;28;20092;-59
2023/10/26 00:05:29;;;;;;;6.80;4.17;;;10.20;99.90;;;;;;4228911;28;20039;-59
2023/10/26 00:07:30;;;;;;;10.50;4.50;;;10.30;99.90;;;;;;4229823;28;20052;-60
2023/10/26 00:09:31;;;;;;;7.50;4.30;;;10.30;99.90;;;;;;4228257;28;20020;-59
2023/10/26 00:11:33;;;;;;;7.93;4.73;;;10.30;99.90;;;;;;4229832;28;20031;-60
2023/10/26 00:13:34;;;;;;;8.23;4.67;;;10.30;99.90;;;;;;4228663;28;20080;-60
2023/10/26 00:15:35;;;;;;;7.07;4.20;;;10.40;99.90;;;;;;4228681;28;20039;-60
2023/10/26 00:17:39;;;;;;;10.37;5.03;;;10.40;99.90;;;;;;4229701;28;20035;-60
2023/10/26 00:19:40;;;;;;;12.57;5.47;;;10.40;99.90;;;;;;4227871;28;20081;-60
2023/10/26 00:21:41;;;;;;;10.13;5.60;;;10.40;99.90;;;;;;4229328;28;20088;-59
2023/10/26 00:23:43;;;;;;;10.87;5.30;;;10.30;99.90;;;;;;4227403;28;20421;-60
2023/10/26 00:25:45;;;;;;;10.00;5.27;;;10.20;99.90;;;;;;4229522;28;20032;-59
2023/10/26 00:27:46;;;;;;;9.67;4.93;;;10.10;99.90;;;;;;4228238;28;20023;-59
2023/10/26 00:29:47;;;;;;;8.73;5.30;;;10.10;99.90;;;;;;4228789;28;20057;-60
2023/10/26 00:31:48;;;;;;;11.20;5.27;;;10.00;99.90;;;;;;4228629;28;20112;-60
2023/10/26 00:33:49;;;;;;;8.13;5.10;;;10.00;99.90;;;;;;4228914;28;20031;-60
2023/10/26 00:35:52;;;;;;;13.80;5.67;;;9.90;99.90;;;;;;4228233;28;20023;-60
2023/10/26 00:37:54;;;;;;;9.93;5.80;;;9.90;99.90;;;;;;4229010;28;20051;-59
2023/10/26 00:39:55;;;;;;;8.10;4.77;;;9.90;99.90;;;;;;4227844;27;20093;-60
2023/10/26 00:41:56;;;;;;;13.10;5.77;;;9.90;99.90;;;;;;4229290;28;20039;-60
2023/10/26 00:43:57;;;;;;;9.67;5.20;;;9.80;99.90;;;;;;4228264;28;20561;-61
2023/10/26 00:45:58;;;;;;;11.77;6.63;;;9.80;99.90;;;;;;4228382;28;20031;-60
2023/10/26 00:48:00;;;;;;;11.10;5.70;;;9.80;99.90;;;;;;4228926;28;20077;-60
2023/10/26 00:50:02;;;;;;;11.80;6.20;;;9.80;99.90;;;;;;4228481;28;20039;-59
2023/10/26 00:52:04;;;;;;;12.43;6.27;;;9.80;99.90;;;;;;4228260;27;20061;-60
2023/10/26 00:54:07;;;;;;;12.07;6.03;;;9.90;99.90;;;;;;4227883;28;20039;-60
2023/10/26 00:56:10;;;;;;;10.57;6.07;;;9.90;99.90;;;;;;4228928;28;20112;-60
2023/10/26 00:58:11;;;;;;;9.80;6.13;;;9.90;99.90;;;;;;4228184;28;20580;-60
2023/10/26 01:00:13;;;;;;;10.77;6.37;;;10.00;99.90;;;;;;4228960;28;20101;-61
2023/10/26 01:02:16;;;;;;;12.67;6.33;;;10.10;99.90;;;;;;4227689;28;20495;-61
2023/10/26 01:04:17;;;;;;;13.77;6.93;;;10.20;99.90;;;;;;4228022;28;20035;-60
2023/10/26 01:06:18;;;;;;;13.23;6.63;;;10.20;99.90;;;;;;4226534;28;20031;-60
2023/10/26 01:08:20;;;;;;;10.37;5.73;;;10.20;99.90;;;;;;4228646;28;20478;-60
2023/10/26 01:10:21;;;;;;;9.53;5.87;;;10.20;99.90;;;;;;4228188;28;20073;-61
2023/10/26 01:12:22;;;;;;;11.03;5.97;;;10.20;99.90;;;;;;4228447;28;20499;-60
2023/10/26 01:16:35;;;;;;;13.27;6.67;;;10.30;99.90;;;;;;4374981;23;20105;-61
2023/10/26 01:18:36;;;;;;;9.60;5.53;;;10.30;99.90;;;;;;4128303;28;20100;-61
2023/10/26 01:20:41;;;;;;;13.27;5.43;;;10.20;99.90;;;;;;4130032;28;20046;-62
2023/10/26 01:22:42;;;;;;;15.17;5.90;;;10.00;99.90;;;;;;4127910;28;20038;-60
2023/10/26 01:24:43;;;;;;;20.00;6.30;;;10.00;99.90;;;;;;4129565;28;20042;-60
2023/10/26 01:26:45;;;;;;;10.47;5.40;;;10.00;99.90;;;;;;4128235;28;20085;-60
2023/10/26 01:28:46;;;;;;;15.90;6.57;;;9.90;99.90;;;;;;4129171;28;20026;-60
2023/10/26 01:30:47;;;;;;;14.83;7.33;;;9.90;99.90;;;;;;4128426;28;20087;-60
2023/10/26 01:32:48;;;;;;;15.07;7.10;;;9.90;99.90;;;;;;4128571;28;20088;-58
2023/10/26 01:34:49;;;;;;;18.13;8.23;;;9.80;99.90;;;;;;4128079;28;20030;-60
2023/10/26 01:36:51;;;;;;;15.80;7.50;;;9.80;99.90;;;;;;4128024;28;20092;-58
2023/10/26 01:38:54;;;;;;;15.40;8.33;;;9.80;99.90;;;;;;4129127;28;20046;-60
2023/10/26 01:40:55;;;;;;;11.50;7.73;;;9.80;99.90;;;;;;4128454;28;20054;-60
2023/10/26 01:42:56;;;;;;;13.23;8.50;;;9.80;99.90;;;;;;4127984;28;20085;-60
2023/10/26 01:44:57;;;;;;;13.17;8.17;;;9.70;99.90;;;;;;4126825;28;20081;-61
2023/10/26 01:46:59;;;;;;;11.87;7.80;;;9.80;99.90;;;;;;4128979;28;20038;-60
2023/10/26 01:49:01;;;;;;;12.17;7.70;;;9.80;99.90;;;;;;4127930;28;20493;-60
2023/10/26 01:51:02;;;;;;;14.90;8.63;;;9.80;99.90;;;;;;4128358;28;20038;-60
2023/10/26 01:53:03;;;;;;;14.30;7.83;;;9.90;99.90;;;;;;4128344;28;20050;-60
2023/10/26 01:55:05;;;;;;;12.07;8.40;;;9.90;99.90;;;;;;4129059;28;20043;-60
2023/10/26 01:57:06;;;;;;;10.90;7.30;;;9.90;99.90;;;;;;4127353;28;20536;-60
2023/10/26 01:59:08;;;;;;;11.83;8.10;;;10.00;99.90;;;;;;4128939;28;20433;-61
2023/10/26 02:01:10;;;;;;;15.60;8.70;;;10.00;99.90;;;;;;4127770;28;20026;-61
2023/10/26 02:03:11;;;;;;;15.37;7.40;;;10.10;99.90;;;;;;4128241;28;20026;-62
2023/10/26 02:05:13;;;;;;;10.97;7.20;;;10.10;99.90;;;;;;4128260;28;20128;-61
2023/10/26 02:07:14;;;;;;;12.83;8.00;;;10.10;99.90;;;;;;4128330;28;20030;-61
2023/10/26 02:09:15;;;;;;;11.50;7.43;;;10.20;99.90;;;;;;4129114;28;20047;-61
2023/10/26 02:11:16;;;;;;;15.57;7.80;;;10.20;99.90;;;;;;4128049;28;20089;-60
2023/10/26 02:13:17;;;;;;;16.30;8.70;;;10.30;99.90;;;;;;4129182;28;20023;-60
2023/10/26 02:15:18;;;;;;;17.60;7.47;;;10.30;99.90;;;;;;4127956;28;20038;-61
2023/10/26 02:17:19;;;;;;;15.20;8.33;;;10.30;99.90;;;;;;4129264;28;20379;-61
2023/10/26 02:19:21;;;;;;;16.87;8.03;;;10.30;99.90;;;;;;4127731;28;20035;-61
2023/10/26 02:21:22;;;;;;;13.07;7.23;;;10.20;99.90;;;;;;4129108;28;20034;-60
2023/10/26 02:23:23;;;;;;;14.30;8.00;;;10.20;99.90;;;;;;4127994;28;20030;-60
2023/10/26 02:25:24;;;;;;;14.97;7.90;;;10.20;99.90;;;;;;4129050;28;20049;-61
2023/10/26 02:27:26;;;;;;;16.07;7.67;;;10.10;99.90;;;;;;4127912;28;20451;-61
2023/10/26 02:29:27;;;;;;;12.03;7.10;;;10.10;99.90;;;;;;4127409;28;20049;-59
2023/10/26 02:31:28;;;;;;;13.63;7.67;;;10.10;99.90;;;;;;4127545;28;20050;-60
2023/10/26 02:33:29;;;;;;;11.23;7.20;;;10.00;99.90;;;;;;4128182;28;20030;-61
2023/10/26 02:35:30;;;;;;;13.50;6.70;;;10.10;99.90;;;;;;4126918;28;20030;-61
2023/10/26 02:37:33;;;;;;;12.30;7.80;;;10.10;99.90;;;;;;4127522;28;20093;-61
2023/10/26 02:39:34;;;;;;;10.47;6.90;;;10.10;99.90;;;;;;4127237;28;20057;-60
2023/10/26 02:41:35;;;;;;;11.33;6.87;;;10.20;99.90;;;;;;4126302;28;20076;-60
2023/10/26 02:43:36;;;;;;;11.67;7.43;;;10.20;99.90;;;;;;4127642;28;20030;-61
2023/10/26 02:45:37;;;;;;;10.93;6.83;;;10.30;99.90;;;;;;4127048;28;20076;-61
2023/10/26 02:47:38;;;;;;;14.63;7.17;;;10.30;99.90;;;;;;4130861;28;20030;-60
2023/10/26 02:49:40;;;;;;;13.27;7.23;;;10.30;99.90;;;;;;4130447;28;20077;-61
2023/10/26 02:51:41;;;;;;;13.07;7.67;;;10.30;99.90;;;;;;4131753;28;20031;-61
2023/10/26 02:53:42;;;;;;;13.87;7.30;;;10.30;99.90;;;;;;4129878;28;20445;-60
2023/10/26 02:55:43;;;;;;;11.83;6.93;;;10.30;99.90;;;;;;4130954;28;20453;-62
2023/10/26 02:57:44;;;;;;;12.37;7.70;;;10.30;99.90;;;;;;4130655;28;20042;-60
2023/10/26 02:59:45;;;;;;;15.60;7.73;;;10.30;99.90;;;;;;4131850;28;20069;-60
2023/10/26 03:01:46;;;;;;;11.67;7.30;;;10.30;99.90;;;;;;4130095;28;20437;-62
2023/10/26 03:03:47;;;;;;;11.17;7.47;;;10.40;99.90;;;;;;4130593;28;20081;-61
2023/10/26 03:05:49;;;;;;;12.37;7.30;;;10.40;99.90;;;;;;4131077;28;20470;-62
2023/10/26 03:07:52;;;;;;;11.40;7.67;;;10.40;99.90;;;;;;4130780;28;20042;-64
2023/10/26 03:09:53;;;;;;;10.80;7.30;;;10.40;99.90;;;;;;4130902;28;20146;-64
2023/10/26 03:11:55;;;;;;;10.67;7.20;;;10.30;99.90;;;;;;4129914;28;20038;-64
2023/10/26 03:13:56;;;;;;;18.47;7.97;;;10.30;99.90;;;;;;4131042;28;20128;-62
2023/10/26 03:15:57;;;;;;;14.10;8.10;;;10.30;99.90;;;;;;4130069;28;20188;-63
2023/10/26 03:17:58;;;;;;;13.13;6.77;;;10.30;99.90;;;;;;4131208;28;20046;-63
2023/10/26 03:19:59;;;;;;;12.53;7.17;;;10.40;99.90;;;;;;4129710;28;20038;-64
2023/10/26 03:22:00;;;;;;;13.40;7.43;;;10.40;99.90;;;;;;4131030;28;20049;-66
2023/10/26 03:24:02;;;;;;;13.23;8.70;;;10.40;99.90;;;;;;4130469;28;20054;-60
2023/10/26 03:26:09;;;;;;;12.20;7.50;;;10.40;99.90;;;;;;4130303;28;20034;-64
2023/10/26 03:28:10;;;;;;;13.50;7.57;;;10.30;99.90;;;;;;4130336;28;20038;-63
2023/10/26 03:30:11;;;;;;;14.70;8.80;;;10.20;99.90;;;;;;4131229;28;20030;-64
2023/10/26 03:32:12;;;;;;;13.60;8.50;;;10.20;99.90;;;;;;4129889;28;20026;-62
2023/10/26 03:34:14;;;;;;;18.03;8.70;;;10.10;99.90;;;;;;4131262;28;20085;-61
2023/10/26 03:36:17;;;;;;;16.20;8.80;;;10.10;99.90;;;;;;4129222;28;20533;-63
2023/10/26 03:38:18;;;;;;;15.27;8.23;;;10.00;99.90;;;;;;4114504;28;20427;-63
2023/10/26 03:40:19;;;;;;;11.93;8.20;;;10.00;99.90;;;;;;4114703;28;20027;-65
2023/10/26 03:42:20;;;;;;;15.53;8.30;;;9.90;99.90;;;;;;4114128;28;20438;-61
2023/10/26 03:44:21;;;;;;;12.30;8.00;;;10.00;99.90;;;;;;4115131;28;20026;-62
2023/10/26 03:46:22;;;;;;;12.20;7.60;;;9.90;99.90;;;;;;4129067;28;20030;-63
2023/10/26 03:48:23;;;;;;;15.73;8.93;;;9.90;99.90;;;;;;4130398;28;20031;-62
2023/10/26 03:50:24;;;;;;;12.47;8.10;;;9.90;99.90;;;;;;4130082;28;20447;-62
2023/10/26 03:52:25;;;;;;;17.13;7.77;;;9.90;99.90;;;;;;4130504;28;20030;-62
2023/10/26 03:54:27;;;;;;;15.07;8.17;;;9.90;99.90;;;;;;4129757;28;20085;-63
2023/10/26 03:56:28;;;;;;;16.53;8.80;;;9.90;99.90;;;;;;4129231;28;20038;-63
2023/10/26 03:58:29;;;;;;;19.47;8.83;;;9.90;99.90;;;;;;4128326;28;20081;-62
2023/10/26 04:00:30;;;;;;;14.40;8.23;;;9.90;99.90;;;;;;4130783;28;20026;-64
2023/10/26 04:02:31;;;;;;;14.30;8.60;;;9.80;99.90;;;;;;4129698;28;20445;-64
2023/10/26 04:04:33;;;;;;;15.50;8.97;;;9.80;99.90;;;;;;4130318;28;20039;-62
2023/10/26 04:06:34;;;;;;;14.10;9.37;;;9.80;99.90;;;;;;4129715;28;20415;-64
2023/10/26 04:08:37;;;;;;;12.73;9.00;;;9.80;99.90;;;;;;4130189;28;20038;-63
2023/10/26 04:10:38;;;;;;;14.07;8.47;;;9.80;99.90;;;;;;4130039;28;20451;-63
2023/10/26 04:12:39;;;;;;;16.17;8.53;;;9.80;99.90;;;;;;4129430;28;20143;-64
2023/10/26 04:14:40;;;;;;;14.83;8.50;;;9.80;99.90;;;;;;4128967;28;20434;-61
2023/10/26 04:16:41;;;;;;;14.33;8.27;;;9.80;99.90;;;;;;4128918;28;20917;-63
2023/10/26 04:18:42;;;;;;;12.47;7.80;;;9.80;99.90;;;;;;4129985;28;20088;-63
2023/10/26 04:20:44;;;;;;;12.17;7.83;;;9.80;99.90;;;;;;4129386;28;20026;-63
2023/10/26 04:22:45;;;;;;;13.10;7.90;;;9.80;99.90;;;;;;4130232;28;20561;-63
2023/10/26 04:24:46;;;;;;;12.00;7.33;;;9.90;99.90;;;;;;4127518;28;20149;-63
2023/10/26 04:26:47;;;;;;;12.87;7.30;;;9.90;99.90;;;;;;4131107;28;20038;-62
2023/10/26 04:28:48;;;;;;;11.77;7.97;;;9.90;99.90;;;;;;4129165;28;20482;-63
2023/10/26 04:30:49;;;;;;;13.17;9.33;;;9.90;99.90;;;;;;4129599;28;20450;-63
2023/10/26 04:32:52;;;;;;;15.27;8.83;;;10.00;99.90;;;;;;4128700;28;20042;-63
2023/10/26 04:34:53;;;;;;;17.43;10.60;;;10.00;99.90;;;;;;4129379;28;20054;-62
2023/10/26 04:36:54;;;;;;;19.93;11.03;;;9.90;99.90;;;;;;4129303;28;20073;-63
2023/10/26 04:38:56;;;;;;;15.27;10.03;;;9.90;99.90;;;;;;4129730;28;20038;-64
2023/10/26 04:40:59;;;;;;;15.10;10.00;;;9.90;99.90;;;;;;4129804;28;20034;-63
2023/10/26 04:43:00;;;;;;;16.27;10.30;;;9.90;99.90;;;;;;4129178;28;20038;-63
2023/10/26 04:45:01;;;;;;;17.87;10.03;;;9.90;99.90;;;;;;4128167;28;20081;-63
2023/10/26 04:47:03;;;;;;;30.10;10.97;;;9.80;99.90;;;;;;4128795;28;20089;-63
2023/10/26 04:49:04;;;;;;;15.40;9.40;;;9.80;99.90;;;;;;4129741;28;20161;-63
2023/10/26 04:51:06;;;;;;;14.00;9.70;;;9.80;99.90;;;;;;4128191;28;20509;-62
2023/10/26 04:53:07;;;;;;;12.97;9.27;;;9.80;99.90;;;;;;4130545;28;20026;-64
2023/10/26 04:55:08;;;;;;;13.63;8.87;;;9.70;99.90;;;;;;4127960;28;20179;-62
2023/10/26 04:57:09;;;;;;;25.17;8.90;;;9.70;99.90;;;;;;4129426;28;20450;-63
2023/10/26 04:59:12;;;;;;;16.70;9.17;;;9.80;99.90;;;;;;4124361;28;20023;-61
2023/10/26 05:01:13;;;;;;;19.53;9.20;;;9.80;99.90;;;;;;4129203;28;20070;-61
2023/10/26 05:03:14;;;;;;;18.67;8.87;;;9.80;99.90;;;;;;4128902;28;20105;-61
2023/10/26 05:05:16;;;;;;;22.53;8.27;;;9.90;99.90;;;;;;4128383;28;20089;-61
2023/10/26 05:07:17;;;;;;;21.80;8.90;;;9.90;99.90;;;;;;4128679;28;20403;-62
2023/10/26 05:09:18;;;;;;;32.07;11.40;;;9.90;99.90;;;;;;4127883;28;20673;-62
2023/10/26 05:11:20;;;;;;;22.93;9.10;;;9.90;99.90;;;;;;4129142;28;20038;-62
2023/10/26 05:13:21;;;;;;;16.93;8.43;;;10.00;99.90;;;;;;4128436;28;20039;-60
2023/10/26 05:15:23;;;;;;;14.90;7.30;;;10.00;99.90;;;;;;4128171;28;20478;-62
2023/10/26 05:17:24;;;;;;;20.33;10.13;;;10.00;99.90;;;;;;4128718;28;20050;-63
2023/10/26 05:19:25;;;;;;;15.33;7.43;;;10.10;99.90;;;;;;4129058;28;20081;-62
2023/10/26 05:21:26;;;;;;;10.97;6.90;;;10.10;99.90;;;;;;4128272;28;20046;-60
2023/10/26 05:23:27;;;;;;;14.47;7.17;;;10.20;99.90;;;;;;4129344;28;20043;-60
2023/10/26 05:25:29;;;;;;;12.37;7.13;;;10.20;99.90;;;;;;4127850;28;20038;-62
2023/10/26 05:27:33;;;;;;;18.43;7.80;;;10.20;99.90;;;;;;4128760;28;20034;-60
2023/10/26 05:29:34;;;;;;;14.60;7.10;;;10.20;99.90;;;;;;4121757;28;20112;-62
2023/10/26 05:31:36;;;;;;;11.43;7.70;;;10.30;99.90;;;;;;4120420;28;20473;-62
2023/10/26 05:33:37;;;;;;;12.93;8.40;;;10.30;99.90;;;;;;4093873;28;20054;-62
2023/10/26 05:35:38;;;;;;;10.97;8.37;;;10.30;99.90;;;;;;4122323;28;20073;-62
2023/10/26 05:37:39;;;;;;;10.27;7.53;;;10.30;99.90;;;;;;4127906;28;20073;-61
2023/10/26 05:39:40;;;;;;;15.07;7.83;;;10.30;99.90;;;;;;4127781;28;20446;-61
2023/10/26 05:41:43;;;;;;;16.00;9.00;;;10.30;99.90;;;;;;4126041;28;20038;-61
2023/10/26 05:43:44;;;;;;;15.27;8.83;;;10.30;99.90;;;;;;4125682;28;20085;-63
2023/10/26 05:45:46;;;;;;;13.60;8.40;;;10.30;99.90;;;;;;4128182;28;20079;-62
2023/10/26 05:47:52;;;;;;;15.70;8.00;;;10.30;99.90;;;;;;4127585;28;20415;-62
2023/10/26 05:49:54;;;;;;;11.67;7.57;;;10.30;99.90;;;;;;4128440;28;20077;-62
2023/10/26 05:51:57;;;;;;;14.17;8.47;;;10.30;99.90;;;;;;4126573;28;20026;-61
2023/10/26 05:53:58;;;;;;;10.73;8.40;;;10.40;99.90;;;;;;4129248;28;20112;-63
2023/10/26 05:55:59;;;;;;;12.70;8.17;;;10.40;99.90;;;;;;4127044;28;20042;-60
2023/10/26 05:58:00;;;;;;;18.97;9.47;;;10.50;99.90;;;;;;4128166;28;20090;-61
2023/10/26 06:00:06;;;;;;;10.53;6.77;;;10.60;99.90;;;;;;4127960;28;20046;-63
2023/10/26 06:02:07;;;;;;;10.00;6.93;;;10.80;99.90;;;;;;4127711;28;20120;-61
2023/10/26 06:04:08;;;;;;;11.47;7.60;;;10.80;99.90;;;;;;4127051;28;20050;-62
2023/10/26 06:06:10;;;;;;;12.47;7.13;;;10.90;99.90;;;;;;4128213;28;20475;-62
2023/10/26 06:08:12;;;;;;;13.20;6.93;;;10.80;99.90;;;;;;4126458;28;20034;-62
2023/10/26 06:10:13;;;;;;;13.83;7.90;;;10.80;99.90;;;;;;4128652;28;20038;-64
2023/10/26 06:12:14;;;;;;;12.90;7.47;;;10.90;99.90;;;;;;4126915;28;20038;-62
2023/10/26 06:14:15;;;;;;;11.37;5.83;;;10.90;99.90;;;;;;4127735;28;20038;-62
2023/10/26 06:16:17;;;;;;;14.00;7.13;;;11.00;99.90;;;;;;4127754;28;20097;-62
2023/10/26 06:18:18;;;;;;;10.23;6.17;;;11.00;99.90;;;;;;4126768;28;20116;-65
2023/10/26 06:20:19;;;;;;;9.73;6.10;;;11.00;99.90;;;;;;4128269;28;20047;-62
2023/10/26 06:22:20;;;;;;;10.07;6.73;;;11.10;99.90;;;;;;4126553;28;20035;-63
2023/10/26 06:24:21;;;;;;;9.23;5.63;;;11.20;99.90;;;;;;4127931;28;20093;-63
2023/10/26 06:26:22;;;;;;;11.87;6.50;;;11.30;99.90;;;;;;4127343;28;20042;-63
2023/10/26 06:28:24;;;;;;;8.93;6.43;;;11.30;99.90;;;;;;4126827;28;20462;-63
2023/10/26 06:30:25;;;;;;;12.03;6.90;;;11.40;99.90;;;;;;4127208;28;20022;-63
2023/10/26 06:32:26;;;;;;;11.63;7.13;;;11.40;99.90;;;;;;4127297;28;20069;-61
2023/10/26 06:34:29;;;;;;;10.27;7.50;;;11.50;99.90;;;;;;4127011;28;20439;-62
2023/10/26 06:36:30;;;;;;;12.53;7.20;;;11.50;99.90;;;;;;4127857;28;20026;-62
2023/10/26 06:38:31;;;;;;;12.93;7.63;;;11.50;99.90;;;;;;4126379;28;20042;-63
2023/10/26 06:40:32;;;;;;;11.83;7.03;;;11.50;99.90;;;;;;4128469;28;20089;-61
2023/10/26 06:42:34;;;;;;;10.43;6.53;;;11.50;99.90;;;;;;4126453;28;20096;-64
2023/10/26 06:44:39;;;;;;;10.27;6.67;;;11.50;99.90;;;;;;4126396;28;20056;-63
2023/10/26 06:46:40;;;;;;;10.83;7.20;;;11.50;99.90;;;;;;4127551;28;20035;-64
2023/10/26 06:48:41;;;;;;;14.60;7.23;;;11.50;99.90;;;;;;4127049;28;20046;-64
2023/10/26 06:50:42;;;;;;;9.27;6.03;;;11.40;99.90;;;;;;4128600;28;20104;-62
2023/10/26 06:52:43;;;;;;;9.33;5.40;;;11.50;99.90;;;;;;4127232;28;20034;-61
2023/10/26 06:54:48;;;;;;;16.50;6.77;;;11.40;99.90;;;;;;4127853;28;20027;-63
2023/10/26 06:56:49;;;;;;;9.83;7.00;;;11.40;99.90;;;;;;4126988;28;20034;-65
2023/10/26 06:58:50;;;;;;;8.77;6.30;;;11.50;99.90;;;;;;4124723;28;20046;-64
2023/10/26 07:00:52;;;;;;;15.47;7.07;;;11.60;99.90;;;;;;4127282;28;20104;-64
2023/10/26 07:02:53;;;;;;;9.23;6.27;;;11.70;99.90;;;;;;4128794;28;20050;-64
2023/10/26 07:04:54;;;;;;;9.57;5.70;;;11.70;99.90;;;;;;4117304;28;20093;-65
2023/10/26 07:06:56;;;;;;;13.37;6.33;;;11.80;99.90;;;;;;4127163;28;20297;-63
2023/10/26 07:08:57;;;;;;;13.10;6.17;;;11.80;99.90;;;;;;4127245;28;20122;-62
2023/10/26 07:10:59;;;;;;;21.10;8.00;;;11.90;99.90;;;;;;4127300;28;20081;-63
2023/10/26 07:13:00;;;;;;;11.57;6.27;;;11.90;99.90;;;;;;4116621;28;20042;-63
2023/10/26 07:15:01;;;;;;;10.97;6.23;;;12.00;99.90;;;;;;4125544;28;20031;-58
2023/10/26 07:17:02;;;;;;;7.37;5.87;;;12.10;99.90;;;;;;4127463;28;20046;-61
2023/10/26 07:19:04;;;;;;;7.37;5.63;;;12.10;99.90;;;;;;4127923;28;20031;-63
2023/10/26 07:21:05;;;;;;;8.33;6.27;;;12.20;99.90;;;;;;4127352;28;20030;-62
2023/10/26 07:23:06;;;;;;;11.07;6.73;;;12.20;99.90;;;;;;4126639;28;20113;-62
2023/10/26 07:25:08;;;;;;;6.43;5.30;;;12.30;99.90;;;;;;4128322;28;20407;-59
2023/10/26 07:27:09;;;;;;;10.30;6.07;;;12.30;99.90;;;;;;4126129;28;20069;-62
2023/10/26 07:29:10;;;;;;;8.30;5.20;;;12.40;99.90;;;;;;4128161;28;20046;-62
2023/10/26 07:31:21;;;;;;;8.97;4.80;;;12.40;99.90;;;;;;4126385;28;20121;-61
2023/10/26 07:33:23;;;;;;;6.20;4.97;;;12.50;99.90;;;;;;4125208;28;20030;-58
2023/10/26 07:35:24;;;;;;;10.00;5.97;;;12.50;99.90;;;;;;4129914;28;20494;-61
2023/10/26 07:37:25;;;;;;;9.80;5.90;;;12.60;99.90;;;;;;4130062;28;20449;-59
2023/10/26 07:39:26;;;;;;;9.33;6.00;;;12.60;99.90;;;;;;4130185;28;20089;-60
2023/10/26 07:41:28;;;;;;;8.27;5.97;;;12.60;99.90;;;;;;4131414;28;20093;-61
2023/10/26 07:43:30;;;;;;;9.13;4.73;;;12.70;99.90;;;;;;4129821;28;20113;-61
2023/10/26 07:45:31;;;;;;;11.77;4.73;;;12.70;99.90;;;;;;4130964;28;20490;-61
2023/10/26 07:47:33;;;;;;;6.53;4.13;;;12.70;99.90;;;;;;4129466;28;20163;-62
2023/10/26 07:49:34;;;;;;;8.07;4.40;;;12.70;99.90;;;;;;4130587;28;20051;-62
2023/10/26 07:51:35;;;;;;;5.17;4.03;;;12.70;99.90;;;;;;4130979;28;20096;-62
2023/10/26 07:53:36;;;;;;;8.70;4.57;;;12.80;99.90;;;;;;4130674;28;20608;-62
2023/10/26 07:55:38;;;;;;;7.50;4.20;;;12.80;99.90;;;;;;4130528;28;20046;-62
2023/10/26 07:57:41;;;;;;;5.90;4.03;;;12.80;99.90;;;;;;4130238;28;20034;-61
2023/10/26 07:59:43;;;;;;;6.67;5.10;;;12.80;99.90;;;;;;4128763;28;20426;-62
2023/10/26 08:01:44;;;;;;;8.13;5.40;;;12.80;99.90;;;;;;4129256;28;20038;-62
2023/10/26 08:03:45;;;;;;;8.93;5.53;;;12.90;99.90;;;;;;4131121;28;20038;-62
2023/10/26 08:05:55;;;;;;;10.73;5.70;;;12.90;99.90;;;;;;4129760;28;20038;-62
2023/10/26 08:07:56;;;;;;;8.77;5.85;;;13.00;99.90;;;;;;4131110;28;20516;-60
2023/10/26 08:09:58;;;;;;;9.67;6.07;;;13.00;99.90;;;;;;4129445;28;20030;-62
2023/10/26 08:11:59;;;;;;;9.57;6.23;;;13.10;99.90;;;;;;4130578;28;20050;-62
2023/10/26 08:14:00;;;;;;;8.57;5.97;;;13.10;99.90;;;;;;4129590;28;20060;-62
2023/10/26 08:16:01;;;;;;;9.27;5.47;;;13.20;99.90;;;;;;4129724;28;20038;-62
2023/10/26 08:18:02;;;;;;;12.30;7.47;;;13.30;99.90;;;;;;4113567;28;20442;-62
2023/10/26 08:20:07;;;;;;;7.77;6.10;;;13.40;99.90;;;;;;4114765;28;20089;-62
2023/10/26 08:22:10;;;;;;;9.77;6.57;;;13.50;99.90;;;;;;4113441;28;20031;-62
2023/10/26 08:24:11;;;;;;;9.50;6.90;;;13.60;99.90;;;;;;4113714;28;20051;-60
2023/10/26 08:26:12;;;;;;;9.77;7.67;;;13.60;99.90;;;;;;4113418;28;20077;-60
2023/10/26 08:28:15;;;;;;;12.50;7.60;;;13.60;99.90;;;;;;4113789;28;20039;-62
2023/10/26 08:30:16;;;;;;;13.20;8.90;;;13.70;99.90;;;;;;4113887;28;20051;-63
2023/10/26 08:32:17;;;;;;;17.17;12.80;;;13.70;99.90;;;;;;4113479;28;20042;-62
2023/10/26 08:34:18;;;;;;;14.40;11.30;;;13.80;99.90;;;;;;4130088;28;20034;-61
2023/10/26 08:36:20;;;;;;;22.37;14.80;;;13.90;99.90;;;;;;4128926;28;20489;-60
2023/10/26 08:38:22;;;;;;;12.63;7.55;;;13.90;99.90;;;;;;4130294;28;20503;-61
2023/10/26 08:40:24;;;;;;;14.13;7.57;;;13.90;99.90;;;;;;4128967;28;20046;-61
2023/10/26 08:42:25;;;;;;;11.30;7.43;;;13.80;99.90;;;;;;4127786;28;20561;-60
2023/10/26 08:44:28;;;;;;;11.43;7.40;;;13.80;99.90;;;;;;4127356;28;20046;-60
2023/10/26 08:46:30;;;;;;;9.53;6.00;;;13.90;99.90;;;;;;4130669;28;20046;-61
2023/10/26 08:48:34;;;;;;;17.23;6.10;;;14.00;99.90;;;;;;4129178;28;20112;-60
2023/10/26 08:50:36;;;;;;;8.38;4.88;;;14.00;99.90;;;;;;4129472;28;20051;-62
2023/10/26 08:52:37;;;;;;;10.15;4.20;;;14.00;99.90;;;;;;4128724;28;20092;-60
2023/10/26 08:54:38;;;;;;;6.97;4.57;;;14.10;99.90;;;;;;4130128;28;20046;-61
2023/10/26 08:56:39;;;;;;;8.75;5.03;;;14.10;99.90;;;;;;4127908;28;20026;-63
2023/10/26 08:58:41;;;;;;;6.07;4.65;;;14.10;99.90;;;;;;4128894;28;20022;-63
2023/10/26 09:00:43;;;;;;;6.78;4.22;;;14.10;99.90;;;;;;4128499;28;20064;-62
2023/10/26 09:02:49;;;;;;;7.13;4.07;;;14.10;99.90;;;;;;4129119;28;20038;-61
2023/10/26 09:05:03;;;;;;;8.25;4.82;;;14.20;99.90;;;;;;4128324;28;20109;-61
2023/10/26 09:07:04;;;;;;;11.98;5.63;;;14.10;99.90;;;;;;4129165;28;20486;-61
2023/10/26 09:09:05;;;;;;;6.78;4.38;;;14.20;99.90;;;;;;4129496;28;20034;-61
2023/10/26 09:11:22;;;;;;;10.23;4.90;;;14.20;99.90;;;;;;4128412;28;20104;-61
2023/10/26 09:13:25;;;;;;;10.82;6.32;;;14.30;99.90;;;;;;4129049;28;20545;-61
2023/10/26 09:15:28;;;;;;;12.90;5.88;;;14.30;99.90;;;;;;4128300;28;20110;-63
2023/10/26 09:17:30;;;;;;;8.23;5.85;;;14.30;99.90;;;;;;4127544;28;20112;-61
2023/10/26 09:19:38;;;;;;;10.75;5.57;;;14.40;99.90;;;;;;4128380;28;20668;-60
2023/10/26 09:21:52;;;;;;;7.97;5.30;;;14.50;99.90;;;;;;4130119;28;20030;-59
2023/10/26 09:23:53;;;;;;;8.23;5.45;;;14.50;99.90;;;;;;4128683;28;20196;-60
2023/10/26 09:26:07;;;;;;;6.47;5.43;;;14.50;99.90;;;;;;4128968;28;20092;-59
2023/10/26 09:28:08;;;;;;;10.55;5.32;;;14.60;99.90;;;;;;4128137;28;20105;-59
2023/10/26 09:30:26;;;;;;;8.38;5.20;;;14.60;99.90;;;;;;4129514;28;20030;-61
2023/10/26 09:32:35;;;;;;;10.70;5.75;;;14.60;99.90;;;;;;4127467;28;20046;-60
2023/10/26 09:34:40;;;;;;;8.32;5.18;;;14.70;99.90;;;;;;4129143;28;20042;-60
2023/10/26 09:36:41;;;;;;;8.55;4.57;;;14.80;99.90;;;;;;4127157;28;20046;-61
2023/10/26 09:38:43;;;;;;;8.40;4.40;;;14.80;99.90;;;;;;4129359;28;20081;-61
2023/10/26 09:40:44;;;;;;;6.47;4.32;;;14.80;99.90;;;;;;4128023;28;20034;-59
2023/10/26 09:42:45;;;;;;;10.95;4.13;;;14.80;99.90;;;;;;4129401;28;20030;-60
2023/10/26 09:44:47;;;;;;;8.98;4.82;;;14.90;99.90;;;;;;4128274;28;20062;-61
2023/10/26 09:46:49;;;;;;;7.45;3.95;;;15.00;99.90;;;;;;4129068;28;20101;-61
2023/10/26 09:48:52;;;;;;;7.43;3.95;;;15.00;99.90;;;;;;4128210;28;20030;-61
2023/10/26 09:50:53;;;;;;;5.43;4.07;;;15.10;99.90;;;;;;4128926;28;20572;-61
2023/10/26 09:52:55;;;;;;;7.78;4.05;;;15.10;99.90;;;;;;4127950;28;20039;-61
2023/10/26 09:54:57;;;;;;;6.13;4.32;;;15.10;99.90;;;;;;4127219;28;20486;-60
2023/10/26 09:57:14;;;;;;;9.27;4.03;;;15.10;99.90;;;;;;4127706;28;20478;-61
2023/10/26 09:59:16;;;;;;;6.05;3.78;;;15.20;99.90;;;;;;4128857;28;20042;-62
2023/10/26 10:01:31;;;;;;;7.95;4.07;;;15.30;99.90;;;;;;4127923;28;20030;-61
2023/10/26 10:03:43;;;;;;;9.52;4.88;;;15.50;99.90;;;;;;4128773;28;20054;-61
2023/10/26 10:05:49;;;;;;;13.60;5.88;;;15.60;99.90;;;;;;4126947;28;20061;-61
2023/10/26 10:07:50;;;;;;;11.23;4.85;;;15.70;99.90;;;;;;4128570;28;20097;-63
2023/10/26 10:10:07;;;;;;;9.02;4.57;;;15.80;99.90;;;;;;4119833;28;20043;-61
2023/10/26 10:12:11;;;;;;;9.15;4.75;;;15.80;99.90;;;;;;4126373;28;20438;-59
2023/10/26 10:14:51;;;;;;;9.20;4.47;;;15.80;99.90;;;;;;4128038;28;20152;-61
2023/10/26 10:16:52;;;;;;;16.75;6.13;;;15.90;99.90;;;;;;4127304;28;20502;-62
2023/10/26 10:19:23;;;;;;;14.65;6.82;;;15.90;99.90;;;;;;4127051;28;20065;-61
2023/10/26 10:21:36;;;;;;;10.68;6.03;;;16.00;99.90;;;;;;4126991;28;20092;-62
2023/10/26 10:23:37;;;;;;;6.65;4.55;;;16.00;99.90;;;;;;4126002;28;20093;-62
2023/10/26 10:25:51;;;;;;;9.02;4.72;;;16.00;99.90;;;;;;4127981;28;20265;-61
2023/10/26 10:27:52;;;;;;;11.23;4.68;;;15.90;99.90;;;;;;4127866;28;20898;-62
2023/10/26 10:29:57;;;;;;;10.27;4.40;;;15.90;99.90;;;;;;4128970;28;20050;-59
2023/10/26 10:31:58;;;;;;;10.68;4.40;;;15.90;99.90;;;;;;4126415;28;20030;-61
2023/10/26 10:34:04;;;;;;;9.45;4.70;;;15.90;99.90;;;;;;4128214;28;20042;-62